Terminal Aerodrome Forecast
Issued by NWS

Home | Current Version | Previous Version | Text Only | Print | Product List | Glossary On
Versions: 1 2 3 4 5 6 7 8 9 10 11 12 13 14 15
000
FTUS44 KLZK 242000 AAA
TAFBPK
TAF AMD
KBPK 242041Z 2421/2518 17012G24KT P6SM VCSH SCT035 OVC050
      TEMPO 2421/2424 3SM -TSRA BR BKN025CB OVC040
     FM250000 16012G22KT P6SM VCSH SCT025 OVC050
      TEMPO 2500/2504 4SM -TSRA BR BKN025CB OVC040
     FM250400 16012G22KT P6SM VCTS BKN040CB OVC080
      TEMPO 2504/2508 4SM -TSRA BR OVC015CB
     FM250800 19007KT 5SM SHRA BR OVC025
     FM251200 15009KT P6SM VCSH BKN025 OVC040=

USA.gov is the U.S. government's official web portal to all federal, state and local government web resources and services.